createdAt,value
2017-05-12T04:40:13.030Z,is
2017-05-12T04:41:14.828Z,42.30
2017-05-12T04:42:14.911Z,42.40
2017-05-12T04:43:14.829Z,42.00
2017-05-12T04:44:15.047Z,42.20
2017-05-12T04:45:14.595Z,41.70
2017-05-12T04:46:15.211Z,41.80
2017-05-12T04:47:15.749Z,42.40
2017-05-12T04:48:14.791Z,41.80
2017-05-12T04:49:17.413Z,41.90
2017-05-12T04:50:15.223Z,42.50
2017-05-12T04:51:15.695Z,42.10
2017-05-12T04:52:15.043Z,42.00
2017-05-12T04:53:15.481Z,42.70
2017-05-12T04:54:15.411Z,42.80
2017-05-12T04:55:16.965Z,42.40
2017-05-12T04:56:15.363Z,42.40
2017-05-12T04:57:14.838Z,42.30
2017-05-12T04:58:15.667Z,42.10
2017-05-12T04:59:14.629Z,42.60
2017-05-12T05:00:15.672Z,42.50
2017-05-12T05:01:14.297Z,is
2017-05-12T05:02:16.009Z,42.40
2017-05-12T05:03:15.107Z,42.40
2017-05-12T05:04:17.935Z,41.50
2017-05-12T05:05:15.842Z,42.80
2017-05-12T05:06:16.941Z,42.30
2017-05-12T05:07:13.261Z,is
2017-05-12T05:08:17.337Z,42.50
2017-05-12T05:09:15.653Z,42.50
2017-05-12T05:10:16.794Z,42.70
2017-05-12T05:11:14.248Z,42.70
2017-05-12T05:12:15.124Z,42.50
2017-05-12T05:13:15.196Z,42.60
2017-05-12T05:14:15.637Z,42.60
2017-05-12T05:15:14.284Z,42.50
2017-05-12T05:16:15.807Z,42.70
2017-05-12T05:17:17.392Z,42.70
2017-05-12T05:18:15.988Z,42.80
2017-05-12T05:19:14.478Z,42.80
2017-05-12T05:20:15.849Z,42.60
2017-05-12T05:21:16.292Z,42.70
2017-05-12T05:22:14.656Z,42.50
2017-05-12T05:23:14.586Z,42.60
2017-05-12T05:24:14.663Z,42.70
2017-05-12T05:25:14.934Z,42.70
2017-05-12T05:26:15.456Z,43.00
2017-05-12T05:27:15.265Z,42.90
2017-05-12T05:28:14.579Z,42.70
2017-05-12T05:29:14.413Z,43.00
2017-05-12T05:30:14.938Z,42.80
2017-05-12T05:31:17.634Z,43.00
2017-05-12T05:32:13.487Z,is
2017-05-12T05:33:15.093Z,43.00
2017-05-12T05:34:15.372Z,43.00
2017-05-12T05:35:17.650Z,43.00
2017-05-12T05:36:14.610Z,42.80
2017-05-12T05:37:14.978Z,42.70
2017-05-12T05:38:15.321Z,42.70
2017-05-12T05:39:14.200Z,42.60
2017-05-12T05:40:13.965Z,42.60
2017-05-12T05:41:15.369Z,42.50
2017-05-12T05:42:15.789Z,42.50
2017-05-12T05:43:15.228Z,42.50
2017-05-12T05:44:14.813Z,42.50
2017-05-12T05:45:13.172Z,is
2017-05-12T05:46:15.542Z,42.50
2017-05-12T05:47:14.337Z,42.50
2017-05-12T05:48:15.822Z,42.40
2017-05-12T05:49:14.954Z,42.50
2017-05-12T05:50:15.110Z,42.50
2017-05-12T05:51:13.254Z,is
2017-05-12T05:52:15.615Z,42.50
2017-05-12T05:53:14.810Z,42.50
2017-05-12T05:54:16.143Z,42.50
2017-05-12T05:55:14.699Z,42.40
2017-05-12T05:56:14.448Z,42.40
2017-05-12T05:57:15.094Z,42.40
2017-05-12T05:58:14.698Z,is
2017-05-12T05:59:12.371Z,is
2017-05-12T06:00:14.977Z,43.20
2017-05-12T06:01:19.999Z,44.00
2017-05-12T06:02:15.316Z,43.90
2017-05-12T06:03:14.834Z,44.10
2017-05-12T06:04:14.115Z,44.60
2017-05-12T06:05:14.820Z,44.10
2017-05-12T06:06:15.147Z,44.00
2017-05-12T06:07:21.399Z,44.00
2017-05-12T06:08:15.370Z,43.90
2017-05-12T06:09:15.672Z,44.20
2017-05-12T06:10:13.323Z,is
2017-05-12T06:11:15.093Z,44.40
2017-05-12T06:12:17.886Z,44.20
2017-05-12T06:13:15.174Z,44.00
2017-05-12T06:14:11.287Z,is
2017-05-12T06:15:14.049Z,44.00
2017-05-12T06:16:14.135Z,44.00
2017-05-12T06:17:14.195Z,44.10
2017-05-12T06:18:13.431Z,44.40
2017-05-12T06:19:13.882Z,44.40
2017-05-12T06:20:14.141Z,44.30
2017-05-12T06:21:13.477Z,44.40
2017-05-12T06:22:13.534Z,44.30
2017-05-12T06:23:14.696Z,44.30
2017-05-12T06:24:13.789Z,44.30
2017-05-12T06:25:14.701Z,44.20
2017-05-12T06:26:13.841Z,44.00
2017-05-12T06:27:14.006Z,44.00
2017-05-12T06:28:15.082Z,43.90
2017-05-12T06:29:15.653Z,43.00
2017-05-12T06:30:14.092Z,44.00
2017-05-12T06:31:15.057Z,44.10
2017-05-12T06:32:12.216Z,is
2017-05-12T06:33:14.707Z,44.50
2017-05-12T06:34:14.065Z,44.30
2017-05-12T06:35:14.609Z,44.10
2017-05-12T06:36:13.872Z,44.20
2017-05-12T06:37:14.599Z,44.20
2017-05-12T06:38:11.529Z,is
2017-05-12T06:39:13.828Z,44.00
2017-05-12T06:40:14.756Z,44.00
2017-05-12T06:41:15.200Z,44.00
2017-05-12T06:42:15.000Z,44.00
2017-05-12T06:43:14.618Z,43.90
2017-05-12T06:44:15.048Z,43.90
2017-05-12T06:45:14.772Z,43.80
2017-05-12T06:46:14.427Z,43.80
2017-05-12T06:47:14.553Z,43.80
2017-05-12T06:48:15.036Z,43.90
2017-05-12T06:49:14.341Z,43.70
2017-05-12T06:50:13.770Z,43.60
2017-05-12T06:51:14.713Z,42.80
2017-05-12T06:52:15.274Z,43.60
2017-05-12T06:53:13.709Z,43.70
2017-05-12T06:54:21.901Z,43.60
2017-05-12T06:55:14.576Z,44.00
2017-05-12T06:56:13.936Z,43.50
2017-05-12T06:57:13.677Z,43.40
2017-05-12T06:58:14.511Z,43.50
2017-05-12T06:59:14.171Z,43.50
2017-05-12T07:00:16.924Z,43.50
2017-05-12T07:01:14.010Z,43.60
2017-05-12T07:02:14.803Z,43.50
2017-05-12T07:03:14.414Z,43.50
2017-05-12T07:04:13.839Z,43.40
2017-05-12T07:05:14.326Z,43.50
2017-05-12T07:06:13.561Z,43.40
2017-05-12T07:07:13.859Z,43.30
2017-05-12T07:08:10.773Z,is
2017-05-12T07:09:14.541Z,43.30
2017-05-12T07:10:17.220Z,43.20
2017-05-12T07:11:11.876Z,is
2017-05-12T07:12:14.734Z,43.30
2017-05-12T07:13:16.165Z,43.20
2017-05-12T07:14:13.659Z,43.10
2017-05-12T07:15:14.098Z,43.00
2017-05-12T07:16:14.580Z,43.00
2017-05-12T07:17:13.854Z,43.00
2017-05-12T07:18:14.378Z,43.00
2017-05-12T07:19:13.899Z,43.00
2017-05-12T07:20:14.318Z,43.00
2017-05-12T07:21:14.114Z,43.30
2017-05-12T07:22:14.952Z,43.00
2017-05-12T07:23:14.320Z,42.90
2017-05-12T07:24:14.106Z,42.90
2017-05-12T07:25:14.375Z,42.90
2017-05-12T07:26:14.148Z,43.00
2017-05-12T07:27:15.158Z,42.90
2017-05-12T07:28:13.523Z,42.90
2017-05-12T07:29:13.758Z,42.90
2017-05-12T07:30:14.040Z,43.00
2017-05-12T07:31:14.570Z,42.90
2017-05-12T07:32:13.836Z,42.90
2017-05-12T07:33:14.906Z,42.80
2017-05-12T07:34:15.096Z,42.80
2017-05-12T07:35:14.569Z,42.80
2017-05-12T07:36:14.348Z,42.90
2017-05-12T07:37:13.482Z,42.80
2017-05-12T07:38:13.910Z,42.80
2017-05-12T07:39:14.304Z,42.70
2017-05-12T07:40:11.665Z,is
2017-05-12T07:41:14.087Z,42.80
2017-05-12T07:42:14.280Z,42.70
2017-05-12T07:43:13.513Z,42.70
2017-05-12T07:44:13.961Z,43.10
2017-05-12T07:45:14.048Z,42.60
2017-05-12T07:46:15.590Z,42.70
2017-05-12T07:47:14.471Z,42.50
2017-05-12T07:48:14.797Z,42.60
2017-05-12T07:49:11.479Z,is
2017-05-12T07:50:15.123Z,42.60
2017-05-12T07:51:15.593Z,42.50
2017-05-12T07:52:14.790Z,42.50
2017-05-12T07:53:12.502Z,is
2017-05-12T07:54:14.876Z,42.50
2017-05-12T07:55:15.106Z,42.50
2017-05-12T07:56:14.550Z,42.50
2017-05-12T07:57:15.345Z,42.60
2017-05-12T07:58:14.357Z,42.50
2017-05-12T07:59:14.289Z,42.50
2017-05-12T08:00:14.708Z,42.50
2017-05-12T08:01:16.481Z,41.60
2017-05-12T08:02:15.224Z,42.40
2017-05-12T08:03:14.403Z,42.50
2017-05-12T08:04:14.326Z,42.50
2017-05-12T08:05:14.852Z,42.70
2017-05-12T08:06:15.000Z,42.50
2017-05-12T08:07:15.963Z,42.60
2017-05-12T08:08:15.953Z,42.50
2017-05-12T08:09:15.474Z,42.50
2017-05-12T08:10:15.407Z,42.50
2017-05-12T08:11:11.122Z,is
2017-05-12T08:12:11.205Z,is
2017-05-12T08:13:18.449Z,42.60
2017-05-12T08:14:15.322Z,42.50
2017-05-12T08:15:14.564Z,42.50
2017-05-12T08:16:14.734Z,42.50
2017-05-12T08:17:15.662Z,42.40
2017-05-12T08:18:14.405Z,42.40
2017-05-12T08:19:14.446Z,42.40
2017-05-12T08:20:14.705Z,42.50
2017-05-12T08:21:14.643Z,42.50
2017-05-12T08:22:14.937Z,42.40
2017-05-12T08:23:15.861Z,42.50
2017-05-12T08:24:15.018Z,42.50
2017-05-12T08:25:15.888Z,42.20
2017-05-12T08:26:15.218Z,42.30
2017-05-12T08:27:14.859Z,42.50
2017-05-12T08:28:15.462Z,42.00
2017-05-12T08:29:15.142Z,42.30
2017-05-12T08:30:14.503Z,42.30
2017-05-12T08:31:11.525Z,is
2017-05-12T08:32:14.912Z,42.30
2017-05-12T08:33:15.327Z,42.30
2017-05-12T08:34:14.391Z,42.30
2017-05-12T08:35:14.821Z,42.30
2017-05-12T08:36:15.113Z,42.30
2017-05-12T08:37:16.220Z,42.30
2017-05-12T08:38:14.370Z,42.20
2017-05-12T08:39:12.118Z,is
2017-05-12T08:40:15.001Z,42.20
2017-05-12T08:41:15.219Z,42.20
2017-05-12T08:42:14.212Z,42.10
2017-05-12T08:43:14.760Z,42.20
2017-05-12T08:44:11.971Z,is
2017-05-12T08:45:15.759Z,42.10
2017-05-12T08:46:15.758Z,42.10
2017-05-12T08:47:14.914Z,42.00
2017-05-12T08:48:15.100Z,42.10
2017-05-12T08:49:12.751Z,is
2017-05-12T08:50:16.514Z,42.00
2017-05-12T08:51:15.004Z,42.00
2017-05-12T08:52:16.172Z,42.10
2017-05-12T08:53:15.016Z,42.00
2017-05-12T08:54:14.416Z,41.90
2017-05-12T08:55:14.853Z,41.90
2017-05-12T08:56:15.275Z,42.00
2017-05-12T08:57:14.871Z,42.00
2017-05-12T08:58:15.182Z,42.50
2017-05-12T08:59:14.404Z,42.00
2017-05-12T09:00:15.100Z,42.10
2017-05-12T09:01:15.101Z,42.00
2017-05-12T09:02:16.188Z,41.90
2017-05-12T09:03:15.673Z,42.00
2017-05-12T09:04:15.149Z,41.90
2017-05-12T09:05:13.949Z,42.20
2017-05-12T09:06:12.188Z,is
2017-05-12T09:07:15.039Z,41.90
2017-05-12T09:08:15.985Z,41.90
2017-05-12T09:09:15.045Z,41.90
2017-05-12T09:10:12.481Z,is
2017-05-12T09:11:14.935Z,41.80
2017-05-12T09:12:15.082Z,41.90
2017-05-12T09:13:15.010Z,41.90
2017-05-12T09:14:15.907Z,42.00
2017-05-12T09:15:15.032Z,42.20
2017-05-12T09:16:17.793Z,41.90
2017-05-12T09:17:14.943Z,41.90
2017-05-12T09:18:15.655Z,41.70
2017-05-12T09:19:14.718Z,41.70
2017-05-12T09:20:15.177Z,41.70
2017-05-12T09:21:14.330Z,41.80
2017-05-12T09:22:14.902Z,41.70
2017-05-12T09:23:11.678Z,is
2017-05-12T09:24:15.595Z,41.60
2017-05-12T09:25:14.848Z,41.70
2017-05-12T09:26:16.094Z,40.80
2017-05-12T09:27:15.301Z,41.50
2017-05-12T09:28:14.530Z,41.60
2017-05-12T09:29:15.209Z,41.70
2017-05-12T09:30:15.078Z,41.50
2017-05-12T09:31:15.367Z,41.50
2017-05-12T09:32:14.516Z,41.50
2017-05-12T09:33:14.980Z,41.60
2017-05-12T09:34:15.338Z,41.60
2017-05-12T09:35:14.613Z,41.60
2017-05-12T09:36:17.220Z,41.80
2017-05-12T09:37:14.239Z,41.50
2017-05-12T09:38:14.619Z,41.50
2017-05-12T09:39:14.760Z,41.60
2017-05-12T09:40:15.783Z,40.60
2017-05-12T09:41:14.822Z,41.50
2017-05-12T09:42:15.508Z,41.50
2017-05-12T09:43:14.754Z,41.40
2017-05-12T09:44:15.060Z,41.50
2017-05-12T09:45:12.007Z,is
2017-05-12T09:46:10.933Z,is
2017-05-12T09:47:15.433Z,41.40
2017-05-12T09:48:14.911Z,41.50
2017-05-12T09:49:11.071Z,is
2017-05-12T09:50:14.751Z,41.30
2017-05-12T09:51:16.607Z,41.40
2017-05-12T09:52:16.398Z,41.40
2017-05-12T09:53:14.740Z,41.40
2017-05-12T09:54:15.013Z,41.40
2017-05-12T09:55:15.815Z,41.50
2017-05-12T09:56:10.810Z,is
2017-05-12T09:57:15.701Z,41.40
2017-05-12T09:58:15.237Z,41.30
2017-05-12T09:59:14.690Z,41.50
2017-05-12T10:00:15.733Z,41.40
2017-05-12T10:01:15.006Z,41.30
2017-05-12T10:02:15.445Z,41.40
2017-05-12T10:03:15.905Z,41.50
2017-05-12T10:04:15.599Z,41.60
2017-05-12T10:05:14.865Z,41.30
2017-05-12T10:06:15.656Z,41.30
2017-05-12T10:07:15.248Z,41.60
2017-05-12T10:08:14.657Z,41.40
2017-05-12T10:09:15.192Z,41.40
2017-05-12T10:10:15.056Z,41.40
2017-05-12T10:11:15.665Z,41.30
2017-05-12T10:12:14.839Z,41.40
2017-05-12T10:13:14.970Z,41.30
2017-05-12T10:14:15.468Z,41.30
2017-05-12T10:15:15.618Z,41.40
2017-05-12T10:16:14.980Z,41.30
2017-05-12T10:17:15.993Z,41.30
2017-05-12T10:18:15.927Z,41.40
2017-05-12T10:19:16.164Z,41.40
2017-05-12T10:20:16.737Z,40.80
2017-05-12T10:21:16.557Z,41.40
2017-05-12T10:22:15.064Z,41.40
2017-05-12T10:23:14.831Z,41.30
2017-05-12T10:24:16.039Z,41.40
2017-05-12T10:25:15.587Z,41.40
2017-05-12T10:26:11.440Z,is
2017-05-12T10:27:15.538Z,41.30
2017-05-12T10:28:15.038Z,41.40
2017-05-12T10:29:15.746Z,41.40
2017-05-12T10:30:16.571Z,41.40
2017-05-12T10:31:11.772Z,is
2017-05-12T10:32:15.106Z,41.40
2017-05-12T10:33:15.577Z,41.30
2017-05-12T10:34:14.634Z,41.30
2017-05-12T10:35:15.024Z,41.80
2017-05-12T10:36:15.841Z,41.50
2017-05-12T10:37:13.058Z,is
2017-05-12T10:38:14.473Z,41.40
2017-05-12T10:39:15.738Z,41.40
2017-05-12T10:40:14.914Z,41.30
2017-05-12T10:41:14.974Z,41.30
2017-05-12T10:42:14.637Z,41.40
2017-05-12T10:43:15.025Z,41.40
2017-05-12T10:44:15.929Z,41.40
2017-05-12T10:45:15.157Z,41.30
2017-05-12T10:46:14.825Z,41.40
2017-05-12T10:47:15.185Z,41.40
2017-05-12T10:48:15.257Z,41.40
2017-05-12T10:49:14.679Z,41.40
2017-05-12T10:50:16.691Z,40.50
2017-05-12T10:51:11.790Z,is
2017-05-12T10:52:15.079Z,41.30
2017-05-12T10:53:15.525Z,41.40
2017-05-12T10:54:15.325Z,41.40
2017-05-12T10:55:15.077Z,41.40
2017-05-12T10:56:15.199Z,41.40
2017-05-12T10:57:14.582Z,41.10
2017-05-12T10:58:15.157Z,41.30
2017-05-12T10:59:14.265Z,41.30
2017-05-12T11:00:14.656Z,41.30
2017-05-12T11:01:15.818Z,41.40
2017-05-12T11:02:16.351Z,41.40
2017-05-12T11:03:14.668Z,41.50
2017-05-12T11:04:11.267Z,is
2017-05-12T11:05:15.007Z,41.40
2017-05-12T11:06:15.507Z,41.50
2017-05-12T11:07:14.826Z,41.40
2017-05-12T11:08:12.186Z,is
2017-05-12T11:09:14.994Z,41.50
2017-05-12T11:10:15.538Z,41.50
2017-05-12T11:11:15.441Z,41.40
2017-05-12T11:12:11.610Z,is
2017-05-12T11:13:14.729Z,41.30
2017-05-12T11:14:15.359Z,41.50
2017-05-12T11:15:14.493Z,41.40
2017-05-12T11:16:14.993Z,41.50
2017-05-12T11:17:15.444Z,41.30
2017-05-12T11:18:10.225Z,is
2017-05-12T11:19:15.509Z,41.40
2017-05-12T11:20:16.184Z,41.40
2017-05-12T11:21:14.526Z,41.50
2017-05-12T11:22:12.202Z,is
2017-05-12T11:23:14.236Z,41.30
2017-05-12T11:24:15.481Z,41.40
2017-05-12T11:25:10.240Z,is
2017-05-12T11:26:14.563Z,41.30
2017-05-12T11:27:15.447Z,41.40
2017-05-12T11:28:15.250Z,41.40
2017-05-12T11:29:14.922Z,41.40
2017-05-12T11:30:15.194Z,41.30
2017-05-12T11:31:14.942Z,41.40
2017-05-12T11:32:15.548Z,41.30
2017-05-12T11:33:14.672Z,41.40
2017-05-12T11:34:15.030Z,41.40
2017-05-12T11:35:14.787Z,41.30
2017-05-12T11:36:15.187Z,41.50
2017-05-12T11:37:11.761Z,is
2017-05-12T11:38:14.557Z,40.60
2017-05-12T11:39:15.115Z,41.50
2017-05-12T11:40:14.944Z,41.40
2017-05-12T11:41:14.851Z,41.30
2017-05-12T11:42:15.394Z,41.50
2017-05-12T11:43:15.612Z,41.40
2017-05-12T11:44:14.702Z,41.30
2017-05-12T11:45:14.615Z,41.40
2017-05-12T11:46:15.953Z,41.40
2017-05-12T11:47:16.130Z,41.40
2017-05-12T11:48:16.512Z,41.40
2017-05-12T11:49:11.783Z,is
2017-05-12T11:50:12.236Z,is
2017-05-12T11:51:14.500Z,41.30
2017-05-12T11:52:10.368Z,is
2017-05-12T11:53:14.714Z,41.30
2017-05-12T11:54:15.789Z,41.30
2017-05-12T11:55:15.068Z,41.30
2017-05-12T11:56:16.559Z,41.40
2017-05-12T11:57:16.061Z,41.40
2017-05-12T11:58:15.336Z,41.40
2017-05-12T11:59:15.108Z,41.40
2017-05-12T12:00:15.100Z,41.40
2017-05-12T12:01:16.233Z,41.30
2017-05-12T12:02:15.261Z,41.30
2017-05-12T12:03:14.575Z,41.30
2017-05-12T12:04:14.798Z,41.40
2017-05-12T12:05:15.317Z,41.30
2017-05-12T12:06:14.380Z,41.40
2017-05-12T12:07:14.603Z,41.30
2017-05-12T12:08:14.613Z,41.40
2017-05-12T12:09:15.213Z,41.30
2017-05-12T12:10:14.526Z,41.30
2017-05-12T12:11:15.893Z,41.40
2017-05-12T12:12:15.300Z,41.30
2017-05-12T12:13:14.682Z,41.40
2017-05-12T12:14:14.696Z,41.30
2017-05-12T12:15:12.345Z,is
2017-05-12T12:16:14.385Z,41.30
2017-05-12T12:17:11.029Z,is
2017-05-12T12:18:14.488Z,41.30
2017-05-12T12:19:15.626Z,41.70
2017-05-12T12:20:15.532Z,41.40
2017-05-12T12:21:14.772Z,41.30
2017-05-12T12:22:12.122Z,is
2017-05-12T12:23:15.129Z,41.30
2017-05-12T12:24:15.983Z,41.30
2017-05-12T12:25:15.877Z,41.30
2017-05-12T12:26:14.917Z,40.90
2017-05-12T12:27:15.489Z,41.30
2017-05-12T12:28:15.624Z,41.50
2017-05-12T12:29:15.131Z,41.40
2017-05-12T12:30:12.572Z,is
2017-05-12T12:31:14.985Z,41.40
2017-05-12T12:32:14.993Z,41.40
2017-05-12T12:33:15.359Z,41.30
2017-05-12T12:34:14.408Z,41.30
2017-05-12T12:35:14.681Z,41.30
2017-05-12T12:36:14.361Z,41.40
2017-05-12T12:37:15.284Z,41.30
2017-05-12T12:38:14.616Z,41.30
2017-05-12T12:39:15.393Z,41.40
2017-05-12T12:40:14.384Z,41.40
2017-05-12T12:41:14.817Z,41.50
2017-05-12T12:42:15.442Z,41.50
2017-05-12T12:43:14.392Z,41.40
2017-05-12T12:44:15.067Z,41.40
2017-05-12T12:45:15.688Z,41.50
2017-05-12T12:46:14.733Z,41.50
2017-05-12T12:47:14.838Z,41.40
2017-05-12T12:48:16.201Z,41.30
2017-05-12T12:49:14.345Z,41.40
2017-05-12T12:50:15.360Z,41.30
2017-05-12T12:51:14.762Z,41.50
2017-05-12T12:52:15.316Z,41.40
2017-05-12T12:53:15.813Z,41.50
2017-05-12T12:54:15.248Z,41.50
2017-05-12T12:55:14.146Z,41.40
2017-05-12T12:56:15.009Z,40.90
2017-05-12T12:57:15.227Z,42.00
2017-05-12T12:58:11.978Z,is
2017-05-12T12:59:15.187Z,41.40
2017-05-12T13:00:11.841Z,is
2017-05-12T13:01:14.346Z,41.40
2017-05-12T13:02:11.964Z,is
2017-05-12T13:03:15.138Z,41.20
2017-05-12T13:04:15.358Z,41.50
2017-05-12T13:05:14.733Z,41.40
2017-05-12T13:06:15.313Z,41.50
2017-05-12T13:07:14.515Z,41.40
2017-05-12T13:08:14.902Z,41.50
2017-05-12T13:09:10.724Z,is
2017-05-12T13:10:15.238Z,41.20
2017-05-12T13:11:15.114Z,41.50
2017-05-12T13:12:15.426Z,41.40
2017-05-12T13:13:15.099Z,41.10
2017-05-12T13:14:12.690Z,is
2017-05-12T13:15:11.085Z,is
2017-05-12T13:16:14.807Z,41.10
2017-05-12T13:17:15.158Z,41.00
2017-05-12T13:18:14.691Z,41.60
2017-05-12T13:19:14.708Z,40.90
2017-05-12T13:20:15.135Z,40.90
2017-05-12T13:21:15.788Z,41.00
2017-05-12T13:22:15.503Z,41.00
2017-05-12T13:23:15.469Z,41.00
2017-05-12T13:24:15.428Z,40.90
2017-05-12T13:25:14.805Z,40.90
2017-05-12T13:26:14.965Z,40.90
2017-05-12T13:27:15.342Z,41.00
2017-05-12T13:28:14.568Z,40.90
2017-05-12T13:29:14.568Z,40.90
2017-05-12T13:30:15.151Z,41.00
2017-05-12T13:31:14.827Z,40.80
2017-05-12T13:32:15.254Z,40.70
2017-05-12T13:33:14.615Z,40.90
2017-05-12T13:34:14.957Z,41.20
2017-05-12T13:35:14.540Z,40.90
2017-05-12T13:36:15.773Z,41.00
2017-05-12T13:37:14.850Z,40.90
2017-05-12T13:38:17.336Z,40.90
2017-05-12T13:39:14.592Z,41.00
2017-05-12T13:40:14.671Z,40.90
2017-05-12T13:41:15.279Z,40.80
2017-05-12T13:42:14.492Z,40.90
2017-05-12T13:43:14.722Z,40.90
2017-05-12T13:44:15.025Z,40.80
2017-05-12T13:45:10.261Z,is
2017-05-12T13:46:14.637Z,40.80
2017-05-12T13:47:16.530Z,40.70
2017-05-12T13:48:14.996Z,40.70
2017-05-12T13:49:16.097Z,40.80
2017-05-12T13:50:15.210Z,40.70
2017-05-12T13:51:15.156Z,40.80
2017-05-12T13:52:14.863Z,40.70
2017-05-12T13:53:14.946Z,40.70
2017-05-12T13:54:15.126Z,40.70
2017-05-12T13:55:16.177Z,40.80
2017-05-12T13:56:14.651Z,40.80
2017-05-12T13:57:14.744Z,40.70
2017-05-12T13:58:14.737Z,40.70
2017-05-12T13:59:15.288Z,40.90
2017-05-12T14:00:14.549Z,40.70
2017-05-12T14:01:15.381Z,40.80
2017-05-12T14:02:14.645Z,40.70
2017-05-12T14:03:15.176Z,40.70
2017-05-12T14:04:14.490Z,40.80
2017-05-12T14:05:14.974Z,40.80
2017-05-12T14:06:11.680Z,is
2017-05-12T14:07:15.783Z,40.70
2017-05-12T14:08:15.794Z,40.80
2017-05-12T14:09:15.084Z,40.70
2017-05-12T14:10:15.264Z,40.70
2017-05-12T14:11:14.497Z,40.70
2017-05-12T14:12:14.806Z,40.70
2017-05-12T14:13:15.220Z,40.70
2017-05-12T14:14:14.731Z,40.80
2017-05-12T14:15:15.723Z,40.80
2017-05-12T14:16:15.467Z,40.80
2017-05-12T14:17:15.087Z,40.80
2017-05-12T14:18:12.182Z,is
2017-05-12T14:19:14.735Z,40.80
2017-05-12T14:20:12.215Z,is
2017-05-12T14:21:15.702Z,41.00
2017-05-12T14:22:15.036Z,41.00
2017-05-12T14:23:12.473Z,is
2017-05-12T14:24:14.788Z,41.00
2017-05-12T14:25:15.351Z,41.30
2017-05-12T14:26:14.782Z,41.20
2017-05-12T14:27:15.314Z,40.70
2017-05-12T14:28:14.599Z,41.40
2017-05-12T14:29:14.885Z,41.30
2017-05-12T14:30:14.870Z,41.30
2017-05-12T14:31:15.855Z,41.40
2017-05-12T14:32:14.878Z,41.40
2017-05-12T14:33:15.059Z,41.20
2017-05-12T14:34:17.487Z,41.70
2017-05-12T14:35:14.820Z,41.30
2017-05-12T14:36:15.181Z,41.10
2017-05-12T14:37:14.450Z,41.10
2017-05-12T14:38:14.576Z,41.10
2017-05-12T14:39:15.016Z,41.00
2017-05-12T14:40:15.747Z,41.20
2017-05-12T14:41:14.947Z,41.10
2017-05-12T14:42:15.758Z,41.30
2017-05-12T14:43:15.267Z,41.20
2017-05-12T14:44:15.805Z,41.40
2017-05-12T14:45:15.350Z,41.40
2017-05-12T14:46:15.319Z,41.50
2017-05-12T14:47:14.605Z,41.60
2017-05-12T14:48:15.769Z,41.60
2017-05-12T14:49:14.989Z,41.70
2017-05-12T14:50:15.759Z,41.70
2017-05-12T14:51:15.343Z,41.80
2017-05-12T14:52:14.866Z,41.70
2017-05-12T14:53:12.542Z,is
2017-05-12T14:54:14.867Z,41.70
2017-05-12T14:55:15.133Z,41.80
2017-05-12T14:56:15.492Z,41.70
2017-05-12T14:57:15.254Z,41.70
2017-05-12T14:58:14.698Z,41.60
2017-05-12T14:59:14.751Z,41.60
2017-05-12T15:00:15.511Z,41.70
2017-05-12T15:01:15.561Z,40.70
2017-05-12T15:02:14.566Z,41.60
2017-05-12T15:03:14.136Z,41.60
2017-05-12T15:04:14.832Z,41.70
2017-05-12T15:05:15.778Z,41.70
2017-05-12T15:06:21.536Z,41.60
2017-05-12T15:07:14.648Z,41.60
2017-05-12T15:08:15.225Z,41.60
2017-05-12T15:09:14.252Z,41.60
2017-05-12T15:10:15.129Z,41.60
2017-05-12T15:11:14.287Z,41.60
2017-05-12T15:12:14.441Z,41.70
2017-05-12T15:13:14.248Z,41.60
2017-05-12T15:14:14.519Z,41.50
2017-05-12T15:15:14.731Z,41.60
2017-05-12T15:16:15.347Z,41.70
2017-05-12T15:17:14.806Z,41.60
2017-05-12T15:18:15.160Z,41.60
2017-05-12T15:19:14.710Z,40.70
2017-05-12T15:20:15.628Z,41.40
2017-05-12T15:21:14.465Z,41.50
2017-05-12T15:22:14.789Z,41.60
2017-05-12T15:23:15.333Z,41.60
2017-05-12T15:24:10.704Z,is
2017-05-12T15:25:15.941Z,41.60
2017-05-12T15:26:15.229Z,41.60
2017-05-12T15:27:14.272Z,41.60
2017-05-12T15:28:15.159Z,41.60
2017-05-12T15:29:14.944Z,41.50
2017-05-12T15:30:12.750Z,is
2017-05-12T15:31:14.922Z,41.60
2017-05-12T15:32:12.125Z,is
2017-05-12T15:33:15.031Z,41.70
2017-05-12T15:34:12.141Z,is
2017-05-12T15:35:10.079Z,is
2017-05-12T15:36:14.823Z,41.60
2017-05-12T15:37:15.673Z,41.60
2017-05-12T15:38:15.105Z,41.60
2017-05-12T15:39:15.164Z,41.50
2017-05-12T15:40:16.264Z,41.60
2017-05-12T15:41:15.006Z,41.60
2017-05-12T15:42:11.664Z,is
2017-05-12T15:43:16.001Z,41.20
2017-05-12T15:44:14.285Z,41.10
2017-05-12T15:45:14.257Z,is
2017-05-12T15:46:14.276Z,41.00
2017-05-12T15:47:14.811Z,41.00
2017-05-12T15:48:15.108Z,41.10
2017-05-12T15:49:15.412Z,41.00
2017-05-12T15:50:14.604Z,41.10
2017-05-12T15:51:15.555Z,40.80
2017-05-12T15:52:14.615Z,41.10
2017-05-12T15:53:12.628Z,is
2017-05-12T15:54:14.797Z,41.20
2017-05-12T15:55:14.817Z,41.20
2017-05-12T15:56:15.639Z,41.30
2017-05-12T15:57:12.999Z,is
2017-05-12T15:58:15.173Z,41.20
2017-05-12T15:59:14.771Z,41.60
2017-05-12T16:00:15.762Z,41.30
2017-05-12T16:01:09.853Z,is
2017-05-12T16:02:14.404Z,41.40
2017-05-12T16:03:14.623Z,41.50
2017-05-12T16:04:14.836Z,41.60
2017-05-12T16:05:15.582Z,41.60
2017-05-12T16:06:14.548Z,41.50
2017-05-12T16:07:15.381Z,41.60
2017-05-12T16:08:14.765Z,41.60
2017-05-12T16:09:15.271Z,41.60
2017-05-12T16:10:14.602Z,41.60
2017-05-12T16:11:15.004Z,41.60
2017-05-12T16:12:15.667Z,41.60
2017-05-12T16:13:14.833Z,41.50
2017-05-12T16:14:15.726Z,41.60
2017-05-12T16:15:15.084Z,41.30
2017-05-12T16:16:15.321Z,41.30
2017-05-12T16:17:14.954Z,41.10
2017-05-12T16:18:15.416Z,40.90
2017-05-12T16:19:15.798Z,41.30
2017-05-12T16:20:14.789Z,40.80
2017-05-12T16:21:15.488Z,41.20
2017-05-12T16:22:14.484Z,40.80
2017-05-12T16:23:15.035Z,40.70
2017-05-12T16:24:15.307Z,40.80
2017-05-12T16:25:15.718Z,40.80
2017-05-12T16:26:14.983Z,40.70
2017-05-12T16:27:15.341Z,40.60
2017-05-12T16:28:11.534Z,is
2017-05-12T16:29:14.756Z,40.70
2017-05-12T16:30:14.807Z,40.60
2017-05-12T16:31:15.281Z,40.60
2017-05-12T16:32:14.226Z,40.70
2017-05-12T16:33:11.038Z,is
2017-05-12T16:34:15.829Z,40.80
2017-05-12T16:35:15.606Z,40.90
2017-05-12T16:36:14.907Z,40.80
2017-05-12T16:37:15.108Z,40.80
2017-05-12T16:38:15.152Z,40.90
2017-05-12T16:39:15.993Z,41.00
2017-05-12T16:40:15.746Z,40.80
2017-05-12T16:41:15.764Z,40.90
2017-05-12T16:42:16.173Z,40.80
2017-05-12T16:43:16.001Z,40.80
2017-05-12T16:44:17.394Z,40.90
2017-05-12T16:45:17.889Z,41.10
2017-05-12T16:46:11.544Z,is
2017-05-12T16:47:15.312Z,41.00
2017-05-12T16:48:15.146Z,41.20
2017-05-12T16:49:15.218Z,41.10
2017-05-12T16:50:14.756Z,41.20
2017-05-12T16:51:14.852Z,41.10
2017-05-12T16:52:14.798Z,41.10
2017-05-12T16:53:15.114Z,41.00
2017-05-12T16:54:14.488Z,41.20
2017-05-12T16:55:14.510Z,41.20
2017-05-12T16:56:15.069Z,41.20
2017-05-12T16:57:15.540Z,41.20
2017-05-12T16:58:14.947Z,41.30
2017-05-12T16:59:15.317Z,41.20
2017-05-12T17:00:14.728Z,40.90
2017-05-12T17:01:14.438Z,41.20
2017-05-12T17:02:15.694Z,41.10
2017-05-12T17:03:15.646Z,41.60
2017-05-12T17:04:14.673Z,41.60
2017-05-12T17:05:14.805Z,41.40
2017-05-12T17:06:15.759Z,41.50
2017-05-12T17:07:15.589Z,41.30
2017-05-12T17:08:14.732Z,41.40
2017-05-12T17:09:14.569Z,41.20
2017-05-12T17:10:14.985Z,41.60
2017-05-12T17:11:15.578Z,41.20
2017-05-12T17:12:15.176Z,41.20
2017-05-12T17:13:13.983Z,41.20
2017-05-12T17:14:15.219Z,41.40
2017-05-12T17:15:14.379Z,41.30
2017-05-12T17:16:14.807Z,41.20
2017-05-12T17:17:15.166Z,41.10
2017-05-12T17:18:14.379Z,41.50
2017-05-12T17:19:12.300Z,is
2017-05-12T17:20:14.701Z,41.50
2017-05-12T17:21:14.882Z,41.20
2017-05-12T17:22:15.533Z,41.30
2017-05-12T17:23:14.774Z,41.30
2017-05-12T17:24:12.135Z,is
2017-05-12T17:25:14.898Z,41.40
2017-05-12T17:26:15.210Z,41.20
2017-05-12T17:27:14.947Z,41.20
2017-05-12T17:28:15.101Z,41.20
2017-05-12T17:29:15.034Z,41.50
2017-05-12T17:30:15.274Z,41.00
2017-05-12T17:31:14.605Z,41.30
2017-05-12T17:32:15.553Z,41.40
2017-05-12T17:33:14.518Z,41.20
2017-05-12T17:34:14.750Z,41.20
2017-05-12T17:35:14.938Z,41.20
2017-05-12T17:36:15.227Z,41.30
2017-05-12T17:37:10.954Z,is
2017-05-12T17:38:15.096Z,41.20
2017-05-12T17:39:15.029Z,41.20
2017-05-12T17:40:15.105Z,41.30